Time;durP1;ratioP1;P1;durP2;ratioP2;P2;SDS_P1;SDS_P2;PMS_P1;PMS_P2;Temp;Humidity;BMP_temperature;BMP_pressure;BME280_temperature;BME280_humidity;BME280_pressure;Samples;Min_cycle;Max_cycle;Signal;HPM_P1;HPM_P2
2022/07/24 00:02:24;;;;;;;5.47;3.45;;;22.60;99.50;;;;;;4979288;28;20054;-90
2022/07/24 00:04:50;;;;;;;5.40;3.53;;;22.60;99.60;;;;;;4994975;28;20049;-90
2022/07/24 00:07:15;;;;;;;9.63;4.38;;;22.60;99.70;;;;;;4993465;28;20042;-91
2022/07/24 00:09:41;;;;;;;6.25;3.65;;;22.60;99.70;;;;;;4978431;28;20042;-90
2022/07/24 00:12:07;;;;;;;7.13;3.83;;;22.60;99.80;;;;;;4993351;28;20039;-90
2022/07/24 00:14:51;;;;;;;6.30;4.07;;;22.50;99.90;;;;;;4983461;28;20038;-90
2022/07/24 00:17:17;;;;;;;7.03;3.72;;;22.50;99.90;;;;;;4994839;28;20097;-91
2022/07/24 00:19:43;;;;;;;5.80;3.47;;;22.40;99.90;;;;;;4976385;28;20118;-90
2022/07/24 00:22:09;;;;;;;6.40;3.80;;;22.40;99.90;;;;;;4978485;28;20109;-90
2022/07/24 00:24:34;;;;;;;5.30;3.30;;;22.40;99.90;;;;;;4986708;28;20612;-90
2022/07/24 00:27:03;;;;;;;6.63;4.07;;;22.40;99.90;;;;;;4990406;28;20030;-90
2022/07/24 00:29:29;;;;;;;7.28;3.70;;;22.30;99.90;;;;;;4983033;28;20034;-90
2022/07/24 00:31:57;;;;;;;5.22;3.42;;;22.30;99.90;;;;;;4995229;28;20033;-91
2022/07/24 00:34:25;;;;;;;7.55;4.25;;;22.30;99.90;;;;;;4988136;28;20026;-90
2022/07/24 00:36:51;;;;;;;7.25;3.80;;;22.30;99.90;;;;;;4982603;28;20083;-90
2022/07/24 00:39:16;;;;;;;5.90;3.70;;;22.20;99.90;;;;;;4989041;28;20038;-90
2022/07/24 00:41:44;;;;;;;7.07;4.22;;;22.20;99.90;;;;;;4986950;28;20018;-90
2022/07/24 00:44:12;;;;;;;6.78;3.72;;;22.20;99.90;;;;;;4984025;28;20073;-90
2022/07/24 00:46:41;;;;;;;5.35;3.80;;;22.10;99.90;;;;;;4983998;28;20532;-90
2022/07/24 00:49:10;;;;;;;7.35;3.65;;;22.10;99.90;;;;;;4985732;28;20046;-89
2022/07/24 00:51:35;;;;;;;7.97;4.57;;;22.00;99.90;;;;;;4978360;28;20495;-90
2022/07/24 00:54:05;;;;;;;6.53;3.78;;;22.00;99.90;;;;;;4978243;28;20034;-89
2022/07/24 00:56:31;;;;;;;6.85;4.03;;;21.90;99.90;;;;;;4994651;28;20027;-89
2022/07/24 00:58:57;;;;;;;6.65;3.55;;;21.90;99.90;;;;;;4977405;28;20491;-89
2022/07/24 01:01:46;;;;;;;6.38;3.88;;;21.90;99.90;;;;;;4984643;28;20121;-89
2022/07/24 01:04:15;;;;;;;7.10;3.83;;;21.80;99.90;;;;;;4981142;28;20042;-88
2022/07/24 01:06:47;;;;;;;8.88;4.32;;;21.80;99.90;;;;;;4999297;28;20023;-90
2022/07/24 01:09:14;;;;;;;6.63;3.60;;;21.80;99.90;;;;;;4979335;28;20138;-88
2022/07/24 01:11:40;;;;;;;7.95;3.63;;;21.80;99.90;;;;;;4984961;28;20073;-90
2022/07/24 01:14:08;;;;;;;7.60;3.60;;;21.80;99.90;;;;;;4990573;28;20030;-92
2022/07/24 01:16:35;;;;;;;7.32;4.13;;;21.80;99.90;;;;;;4990392;28;20026;-91
2022/07/24 01:19:02;;;;;;;7.05;3.85;;;21.80;99.90;;;;;;4986872;28;20038;-91
2022/07/24 01:21:28;;;;;;;8.07;3.47;;;21.70;99.90;;;;;;4984316;28;20022;-90
2022/07/24 01:23:54;;;;;;;8.00;3.90;;;21.70;99.90;;;;;;4983304;28;20031;-91
2022/07/24 01:26:31;;;;;;;5.88;3.63;;;21.70;99.90;;;;;;4980857;28;20117;-91
2022/07/24 01:28:57;;;;;;;6.22;3.40;;;21.70;99.90;;;;;;4978666;28;20044;-90
2022/07/24 01:31:23;;;;;;;5.80;3.60;;;21.70;99.90;;;;;;4984550;28;20073;-91
2022/07/24 01:33:49;;;;;;;5.15;3.17;;;21.70;99.90;;;;;;4981703;28;20033;-91
2022/07/24 01:36:14;;;;;;;6.07;4.10;;;21.70;99.90;;;;;;4982426;28;20066;-90
2022/07/24 01:38:40;;;;;;;6.97;3.85;;;21.60;99.90;;;;;;4982096;28;20030;-90
2022/07/24 01:41:07;;;;;;;6.25;3.78;;;21.60;99.90;;;;;;4996339;28;20026;-90
2022/07/24 01:43:36;;;;;;;7.97;4.75;;;21.50;99.90;;;;;;4984076;28;20471;-91
2022/07/24 01:46:09;;;;;;;7.88;4.55;;;21.50;99.90;;;;;;4982836;28;20679;-91
2022/07/24 01:48:43;;;;;;;8.20;4.68;;;21.40;99.90;;;;;;4975216;28;20026;-90
2022/07/24 01:51:09;;;;;;;8.85;4.85;;;21.50;99.90;;;;;;4981843;28;20075;-91
2022/07/24 01:53:35;;;;;;;8.63;4.30;;;21.40;99.90;;;;;;4983226;28;20034;-90
2022/07/24 01:56:01;;;;;;;7.45;4.28;;;21.40;99.90;;;;;;4986405;28;20023;-91
2022/07/24 01:58:27;;;;;;;8.02;5.13;;;21.40;99.90;;;;;;4985176;28;20023;-91
2022/07/24 02:01:03;;;;;;;7.65;4.13;;;21.40;99.90;;;;;;4977928;28;20502;-90
2022/07/24 02:03:29;;;;;;;6.88;4.30;;;21.40;99.90;;;;;;4979209;28;20125;-90
2022/07/24 02:05:54;;;;;;;7.53;4.60;;;21.40;99.90;;;;;;4981364;28;20065;-91
2022/07/24 02:08:21;;;;;;;6.95;4.07;;;21.40;99.90;;;;;;4982553;28;20071;-90
2022/07/24 02:10:49;;;;;;;7.72;4.57;;;21.30;99.90;;;;;;4974523;28;20802;-90
2022/07/24 02:13:15;;;;;;;8.00;4.35;;;21.30;99.90;;;;;;4980717;28;20042;-91
2022/07/24 02:15:41;;;;;;;7.75;4.30;;;21.20;99.90;;;;;;4981355;28;20033;-90
2022/07/24 02:18:06;;;;;;;7.03;4.13;;;21.20;99.90;;;;;;4994565;28;20022;-91
2022/07/24 02:20:32;;;;;;;8.80;4.93;;;21.20;99.90;;;;;;4994775;28;20080;-89
2022/07/24 02:22:58;;;;;;;7.07;4.13;;;21.10;99.90;;;;;;4993109;28;20550;-88
2022/07/24 02:25:24;;;;;;;6.35;4.38;;;21.00;99.90;;;;;;4975849;28;20022;-88
2022/07/24 02:27:49;;;;;;;8.90;4.63;;;21.00;99.90;;;;;;4994077;28;20083;-88
2022/07/24 02:30:17;;;;;;;8.18;4.40;;;21.00;99.90;;;;;;4991675;28;20085;-89
2022/07/24 02:32:43;;;;;;;7.93;4.63;;;21.00;99.90;;;;;;4982592;28;20031;-89
2022/07/24 02:35:09;;;;;;;7.55;4.43;;;20.90;99.90;;;;;;4981426;28;20505;-88
2022/07/24 02:37:37;;;;;;;7.80;4.80;;;20.90;99.90;;;;;;4978064;28;20033;-88
2022/07/24 02:40:03;;;;;;;7.85;4.60;;;20.90;99.90;;;;;;4996123;28;20400;-90
2022/07/24 02:42:29;;;;;;;8.27;4.97;;;20.80;99.90;;;;;;4971995;28;20030;-90
2022/07/24 02:44:54;;;;;;;8.63;5.18;;;20.80;99.90;;;;;;4982081;28;20038;-89
2022/07/24 02:47:20;;;;;;;8.63;5.55;;;20.70;99.90;;;;;;4982406;28;20034;-89
2022/07/24 02:49:46;;;;;;;6.90;4.75;;;20.70;99.90;;;;;;4979198;28;20029;-89
2022/07/24 02:52:11;;;;;;;10.93;5.30;;;20.80;99.90;;;;;;4995496;28;20034;-88
2022/07/24 02:54:37;;;;;;;9.30;5.00;;;20.70;99.90;;;;;;4996324;28;20030;-88
2022/07/24 02:57:03;;;;;;;10.45;5.50;;;20.70;99.90;;;;;;4982228;28;20058;-89
2022/07/24 02:59:28;;;;;;;9.63;4.97;;;20.70;99.90;;;;;;4976322;28;20031;-89
2022/07/24 03:01:54;;;;;;;9.30;5.80;;;20.60;99.90;;;;;;4981414;28;20041;-89
2022/07/24 03:04:20;;;;;;;10.32;5.47;;;20.70;99.90;;;;;;4979343;28;20030;-89
2022/07/24 03:06:46;;;;;;;9.45;5.43;;;20.60;99.90;;;;;;4994541;28;20045;-90
2022/07/24 03:09:12;;;;;;;8.38;5.25;;;20.70;99.90;;;;;;4979437;28;20022;-89
2022/07/24 03:11:38;;;;;;;8.38;5.00;;;20.70;99.90;;;;;;4980296;28;20368;-89
2022/07/24 03:14:03;;;;;;;8.13;5.28;;;20.60;99.90;;;;;;4974678;28;20509;-89
2022/07/24 03:16:31;;;;;;;9.20;5.38;;;20.60;99.90;;;;;;4973317;28;20030;-88
2022/07/24 03:18:57;;;;;;;10.50;5.25;;;20.50;99.90;;;;;;4981651;28;20081;-89
2022/07/24 03:21:24;;;;;;;10.02;5.63;;;20.50;99.90;;;;;;4980415;28;20073;-90
2022/07/24 03:23:50;;;;;;;9.00;5.38;;;20.40;99.90;;;;;;4995877;28;20038;-90
2022/07/24 03:26:15;;;;;;;9.82;5.20;;;20.40;99.90;;;;;;4990599;28;20037;-88
2022/07/24 03:28:41;;;;;;;8.23;5.40;;;20.40;99.90;;;;;;4979424;28;20038;-88
2022/07/24 03:31:07;;;;;;;9.02;5.18;;;20.40;99.90;;;;;;4979726;28;20106;-88
2022/07/24 03:33:33;;;;;;;9.45;5.18;;;20.40;99.90;;;;;;4995965;28;20078;-88
2022/07/24 03:35:59;;;;;;;9.05;5.20;;;20.40;99.90;;;;;;4992053;28;20030;-88
2022/07/24 03:38:25;;;;;;;8.38;5.25;;;20.40;99.90;;;;;;4974425;28;20030;-88
2022/07/24 03:40:51;;;;;;;7.82;5.40;;;20.30;99.90;;;;;;4973325;28;20026;-88
2022/07/24 03:43:17;;;;;;;8.88;5.10;;;20.30;99.90;;;;;;4977022;28;20494;-88
2022/07/24 03:45:43;;;;;;;8.05;4.57;;;20.30;99.90;;;;;;4975863;28;20093;-88
2022/07/24 03:48:09;;;;;;;6.90;4.88;;;20.30;99.90;;;;;;4980410;28;20030;-89
2022/07/24 03:50:35;;;;;;;6.97;4.63;;;20.20;99.90;;;;;;4994836;28;20037;-89
2022/07/24 03:53:01;;;;;;;8.30;4.22;;;20.10;99.90;;;;;;4993728;28;20384;-88
2022/07/24 03:55:26;;;;;;;9.10;5.30;;;20.00;99.90;;;;;;4977977;28;20027;-89
2022/07/24 03:57:52;;;;;;;8.80;5.30;;;20.00;99.90;;;;;;4976193;28;20072;-88
2022/07/24 04:00:18;;;;;;;9.55;5.85;;;19.90;99.90;;;;;;4983567;28;20034;-88
2022/07/24 04:02:43;;;;;;;10.43;5.72;;;19.90;99.90;;;;;;4995440;28;20034;-88
2022/07/24 04:05:17;;;;;;;8.57;5.20;;;20.00;99.90;;;;;;4978477;28;20057;-89
2022/07/24 04:07:43;;;;;;;9.98;5.72;;;20.00;99.90;;;;;;4987015;28;20049;-88
2022/07/24 04:10:09;;;;;;;9.93;5.68;;;20.00;99.90;;;;;;4985851;28;20030;-88
2022/07/24 04:12:34;;;;;;;10.48;5.57;;;20.00;99.90;;;;;;4971981;28;20038;-89
2022/07/24 04:15:00;;;;;;;11.13;5.32;;;20.00;99.90;;;;;;4979575;28;20294;-88
2022/07/24 04:17:26;;;;;;;8.43;5.32;;;20.00;99.90;;;;;;4978805;28;20046;-89
2022/07/24 04:19:51;;;;;;;8.88;5.85;;;19.90;99.90;;;;;;4980238;28;20513;-89
2022/07/24 04:22:17;;;;;;;9.75;5.63;;;20.00;99.90;;;;;;5015931;23;20026;-89
2022/07/24 04:24:42;;;;;;;8.50;5.05;;;20.00;99.90;;;;;;4969645;28;20120;-87
2022/07/24 04:27:08;;;;;;;8.98;5.22;;;20.00;99.90;;;;;;4972969;28;20407;-87
2022/07/24 04:29:34;;;;;;;9.07;5.15;;;20.10;99.90;;;;;;4984767;28;20485;-87
2022/07/24 04:32:01;;;;;;;8.15;4.70;;;20.10;99.90;;;;;;4971124;28;20442;-87
2022/07/24 04:34:27;;;;;;;8.40;4.65;;;20.20;99.90;;;;;;4956154;28;20391;-87
2022/07/24 04:36:52;;;;;;;7.63;4.97;;;20.20;99.90;;;;;;4970890;28;20031;-87
2022/07/24 04:39:18;;;;;;;8.70;5.50;;;20.30;99.90;;;;;;4954066;28;20046;-87
2022/07/24 04:41:44;;;;;;;8.48;5.22;;;20.30;99.90;;;;;;4971646;28;20026;-88
2022/07/24 04:44:13;;;;;;;9.85;4.93;;;20.30;99.90;;;;;;4954387;28;20113;-89
2022/07/24 04:46:38;;;;;;;8.32;5.03;;;20.30;99.90;;;;;;4973951;28;20069;-88
2022/07/24 04:49:04;;;;;;;7.28;4.63;;;20.20;99.90;;;;;;4971028;28;20031;-88
2022/07/24 04:51:29;;;;;;;9.73;5.00;;;20.30;99.90;;;;;;4968413;28;20039;-88
2022/07/24 04:53:55;;;;;;;9.65;4.63;;;20.30;99.90;;;;;;4972261;28;20407;-87
2022/07/24 04:56:22;;;;;;;8.25;4.70;;;20.40;99.90;;;;;;4969380;28;20158;-88
2022/07/24 04:58:47;;;;;;;9.38;5.25;;;20.40;99.90;;;;;;4953769;28;20404;-87
2022/07/24 05:01:14;;;;;;;9.13;5.15;;;20.40;99.90;;;;;;4973821;28;20023;-88
2022/07/24 05:03:45;;;;;;;8.85;5.55;;;20.40;99.90;;;;;;4972735;28;20023;-88
2022/07/24 05:06:11;;;;;;;8.45;5.07;;;20.50;99.90;;;;;;4959919;28;20019;-87
2022/07/24 05:08:37;;;;;;;9.20;4.95;;;20.50;99.90;;;;;;4974385;28;20031;-88
2022/07/24 05:11:02;;;;;;;7.18;4.53;;;20.60;99.90;;;;;;4962252;28;20090;-88
2022/07/24 05:13:28;;;;;;;8.82;4.70;;;20.70;99.90;;;;;;4969774;28;20074;-89
2022/07/24 05:15:57;;;;;;;8.38;4.85;;;20.70;99.90;;;;;;4998494;28;20015;-89
2022/07/24 05:18:23;;;;;;;8.02;4.90;;;20.80;99.90;;;;;;4988004;28;20066;-90
2022/07/24 05:21:14;;;;;;;9.15;5.15;;;20.90;99.90;;;;;;4976901;28;20051;-89
2022/07/24 05:23:58;;;;;;;8.55;4.72;;;20.90;99.90;;;;;;4977552;28;20089;-89
2022/07/24 05:26:33;;;;;;;9.32;4.75;;;20.90;99.90;;;;;;4966819;28;20071;-89
2022/07/24 05:29:15;;;;;;;8.13;4.90;;;21.00;99.90;;;;;;4969172;28;20027;-88
2022/07/24 05:31:49;;;;;;;8.15;4.90;;;20.80;99.90;;;;;;4981023;28;20038;-89
2022/07/24 05:34:23;;;;;;;7.70;4.78;;;21.00;99.90;;;;;;4978932;28;20022;-88
2022/07/24 05:36:54;;;;;;;7.95;4.80;;;21.00;99.90;;;;;;4960746;28;20023;-87
2022/07/24 05:39:20;;;;;;;8.55;5.20;;;21.10;99.90;;;;;;4962398;28;20037;-88
2022/07/24 05:41:47;;;;;;;8.05;5.03;;;21.10;99.90;;;;;;4979689;28;20035;-88
2022/07/24 05:44:13;;;;;;;8.35;5.15;;;21.20;99.90;;;;;;4977443;28;20041;-87
2022/07/24 05:46:38;;;;;;;11.48;5.90;;;21.30;99.90;;;;;;4976858;28;20022;-88
2022/07/24 05:49:04;;;;;;;7.80;5.03;;;21.30;99.90;;;;;;4962785;28;20034;-88
2022/07/24 05:51:30;;;;;;;8.63;5.43;;;21.40;99.90;;;;;;4981389;28;20034;-88
2022/07/24 05:53:57;;;;;;;10.10;5.78;;;21.50;99.90;;;;;;4979417;28;20027;-88
2022/07/24 05:56:22;;;;;;;9.05;5.50;;;21.60;99.90;;;;;;4971405;28;20022;-88
2022/07/24 05:58:48;;;;;;;9.90;6.40;;;21.70;99.90;;;;;;4976947;28;20045;-88
2022/07/24 06:01:20;;;;;;;9.60;5.75;;;21.80;99.90;;;;;;4981010;28;20026;-88
2022/07/24 06:03:45;;;;;;;9.45;5.70;;;21.80;99.90;;;;;;4959685;28;20368;-88
2022/07/24 06:06:11;;;;;;;9.02;5.65;;;21.90;99.90;;;;;;4973866;28;20033;-88
2022/07/24 06:08:37;;;;;;;8.48;5.30;;;21.90;99.90;;;;;;4973546;28;20082;-88
2022/07/24 06:11:04;;;;;;;7.97;4.68;;;21.90;99.90;;;;;;4975031;28;20038;-88
2022/07/24 06:13:29;;;;;;;8.02;5.05;;;22.00;99.90;;;;;;4978905;28;20121;-88
2022/07/24 06:15:55;;;;;;;7.85;4.72;;;22.00;99.90;;;;;;4981096;28;20083;-88
2022/07/24 06:18:24;;;;;;;8.57;5.63;;;22.00;99.90;;;;;;4973487;28;20085;-88
2022/07/24 06:20:49;;;;;;;9.48;5.18;;;22.00;99.90;;;;;;4976980;28;20026;-87
2022/07/24 06:23:15;;;;;;;8.25;4.53;;;22.20;99.90;;;;;;4961972;28;20034;-88
2022/07/24 06:25:41;;;;;;;10.00;5.60;;;22.20;99.90;;;;;;4961086;28;20486;-88
2022/07/24 06:28:06;;;;;;;7.63;4.57;;;22.40;99.90;;;;;;4974559;28;20094;-89
2022/07/24 06:30:32;;;;;;;8.07;4.50;;;22.50;99.90;;;;;;4958985;28;20407;-87
2022/07/24 06:32:59;;;;;;;7.45;4.43;;;22.60;99.90;;;;;;4976355;28;20495;-86
2022/07/24 06:35:26;;;;;;;7.50;4.30;;;22.80;99.90;;;;;;4977651;28;20030;-89
2022/07/24 06:37:52;;;;;;;6.93;4.22;;;22.80;99.90;;;;;;4974102;28;20078;-89
2022/07/24 06:40:19;;;;;;;8.57;4.78;;;22.80;99.90;;;;;;4974082;28;20497;-90
2022/07/24 06:42:47;;;;;;;5.72;3.55;;;22.90;99.90;;;;;;4976153;28;20399;-89
2022/07/24 06:45:12;;;;;;;6.65;4.05;;;23.10;99.90;;;;;;4961005;28;20388;-90
2022/07/24 06:47:51;;;;;;;6.45;4.03;;;23.20;99.90;;;;;;4978030;28;20062;-90
2022/07/24 06:50:18;;;;;;;7.93;4.22;;;23.20;99.90;;;;;;4954562;28;20432;-90
2022/07/24 06:52:49;;;;;;;7.65;3.78;;;23.40;99.90;;;;;;4975085;28;20082;-90
2022/07/24 06:55:16;;;;;;;7.68;3.78;;;23.50;99.90;;;;;;4962523;28;20029;-90
2022/07/24 06:57:47;;;;;;;7.10;4.00;;;23.60;99.90;;;;;;4974580;28;20038;-89
2022/07/24 07:00:40;;;;;;;6.00;3.50;;;23.60;99.90;;;;;;4976023;28;20038;-90
2022/07/24 07:03:08;;;;;;;5.95;3.67;;;23.80;99.90;;;;;;4971248;28;20119;-89
2022/07/24 07:05:37;;;;;;;6.72;3.63;;;23.90;99.90;;;;;;4960956;28;20027;-89
2022/07/24 07:08:06;;;;;;;7.18;3.83;;;24.30;99.90;;;;;;4974261;28;20442;-90
2022/07/24 07:10:34;;;;;;;5.60;3.60;;;24.10;99.90;;;;;;4974447;28;20026;-90
2022/07/24 07:13:02;;;;;;;5.47;3.30;;;24.30;99.90;;;;;;4975955;28;20030;-90
2022/07/24 07:15:32;;;;;;;7.05;3.65;;;24.30;99.90;;;;;;4974222;28;20037;-89
2022/07/24 07:17:58;;;;;;;5.47;3.60;;;24.30;99.90;;;;;;4962292;28;20606;-89
2022/07/24 07:20:28;;;;;;;5.70;2.97;;;24.40;99.90;;;;;;4978496;28;20171;-89
2022/07/24 07:22:57;;;;;;;6.67;3.53;;;24.60;99.90;;;;;;4957504;28;20045;-89
2022/07/24 07:25:29;;;;;;;7.97;3.65;;;24.50;99.90;;;;;;4979575;28;20344;-89
2022/07/24 07:30:51;;;;;;;5.63;2.97;;;24.50;99.90;;;;;;4971606;28;19914;-88
2022/07/24 07:33:29;;;;;;;4.85;2.72;;;24.70;99.90;;;;;;4956608;28;20027;-88
2022/07/24 07:38:56;;;;;;;3.95;2.47;;;25.10;99.90;;;;;;4972355;28;20035;-88
2022/07/24 07:41:22;;;;;;;3.55;2.22;;;25.30;99.90;;;;;;4955456;28;20019;-88
2022/07/24 07:43:49;;;;;;;5.45;2.30;;;25.40;99.90;;;;;;4971676;28;20038;-88
2022/07/24 07:46:15;;;;;;;3.15;2.00;;;25.50;99.10;;;;;;4976116;28;20034;-89
2022/07/24 07:48:41;;;;;;;4.50;2.30;;;25.60;98.60;;;;;;4977330;28;20034;-88
2022/07/24 07:51:12;;;;;;;4.07;2.30;;;25.80;98.60;;;;;;4952144;28;20106;-89
2022/07/24 07:53:38;;;;;;;4.13;2.00;;;26.00;98.10;;;;;;4958424;28;20034;-89
2022/07/24 07:56:05;;;;;;;3.72;2.03;;;26.20;97.90;;;;;;4973142;28;20034;-89
2022/07/24 07:58:31;;;;;;;3.33;1.83;;;26.30;96.60;;;;;;4957820;28;20034;-89
2022/07/24 08:01:03;;;;;;;4.68;2.25;;;26.30;95.90;;;;;;4974979;28;20038;-89
2022/07/24 08:03:30;;;;;;;3.45;1.90;;;26.20;95.80;;;;;;4953072;28;20901;-88
2022/07/24 08:05:56;;;;;;;6.72;1.90;;;26.40;95.40;;;;;;4972938;28;20034;-87
2022/07/24 08:08:33;;;;;;;3.63;2.40;;;26.40;95.30;;;;;;4954586;28;20498;-89
2022/07/24 08:11:00;;;;;;;4.38;2.30;;;26.60;95.80;;;;;;4969235;28;20114;-89
2022/07/24 08:13:29;;;;;;;3.42;2.00;;;26.50;96.00;;;;;;4968455;28;20038;-89
2022/07/24 08:15:55;;;;;;;4.65;2.42;;;26.50;95.90;;;;;;4948243;28;20027;-89
2022/07/24 08:18:20;;;;;;;5.13;2.20;;;26.20;96.80;;;;;;4953222;28;20027;-89
2022/07/24 08:21:07;;;;;;;6.55;2.90;;;26.30;96.70;;;;;;4970360;28;20062;-88
2022/07/24 08:23:41;;;;;;;5.90;2.83;;;26.10;96.90;;;;;;4970271;28;20026;-88
2022/07/24 08:26:12;;;;;;;5.13;2.47;;;26.50;97.20;;;;;;4959485;28;20435;-88
2022/07/24 08:28:53;;;;;;;4.13;2.15;;;26.70;96.20;;;;;;4953567;28;20625;-88
2022/07/24 08:31:37;;;;;;;4.05;2.20;;;26.80;95.50;;;;;;4969079;28;20038;-88
2022/07/24 08:34:11;;;;;;;4.00;1.98;;;27.10;96.00;;;;;;4974473;28;20146;-89
2022/07/24 08:36:56;;;;;;;3.55;2.00;;;27.40;94.70;;;;;;4968855;28;20034;-88
2022/07/24 08:39:32;;;;;;;3.78;2.00;;;27.60;94.50;;;;;;4972900;28;20510;-88
2022/07/24 08:45:27;;;;;;;3.67;1.95;;;28.10;93.10;;;;;;4938506;28;20035;-87
2022/07/24 08:47:59;;;;;;;4.47;2.13;;;28.30;92.90;;;;;;4971533;28;20034;-87
2022/07/24 08:51:13;;;;;;;4.13;2.10;;;28.50;93.00;;;;;;4966799;28;20039;-88
2022/07/24 08:53:38;;;;;;;3.38;1.95;;;28.40;93.10;;;;;;4974384;28;20547;-88
2022/07/24 08:58:58;;;;;;;4.20;1.88;;;28.50;91.70;;;;;;4968663;28;20415;-88
2022/07/24 09:01:38;;;;;;;5.05;2.33;;;28.40;92.10;;;;;;4961594;28;20022;-88
2022/07/24 09:04:38;;;;;;;4.15;1.88;;;28.30;92.30;;;;;;4957640;28;20030;-88
2022/07/24 09:07:18;;;;;;;3.22;1.90;;;28.40;93.30;;;;;;4959712;28;20030;-87
2022/07/24 09:44:41;;;;;;;4.95;2.30;;;30.10;88.90;;;;;;4992883;28;20045;-89
2022/07/24 09:47:19;;;;;;;3.85;2.00;;;29.80;88.00;;;;;;4974071;28;20062;-90
2022/07/24 09:50:14;;;;;;;4.40;2.40;;;30.10;87.60;;;;;;4992213;28;20018;-90
2022/07/24 09:52:50;;;;;;;5.57;2.20;;;29.80;86.30;;;;;;4976072;28;20542;-91
2022/07/24 09:56:16;;;;;;;3.03;1.85;;;29.60;87.20;;;;;;4977427;28;20041;-90
2022/07/24 09:58:58;;;;;;;3.28;1.90;;;29.70;88.70;;;;;;4968844;28;20018;-91
2022/07/24 10:02:10;;;;;;;3.00;1.92;;;29.80;88.50;;;;;;4982898;28;20149;-92
2022/07/24 10:04:55;;;;;;;3.83;2.08;;;30.40;86.40;;;;;;4954134;28;20078;-90
2022/07/24 10:07:23;;;;;;;3.53;2.00;;;30.50;85.40;;;;;;4977218;28;20511;-90
2022/07/24 10:09:54;;;;;;;3.55;2.10;;;30.70;83.80;;;;;;4967861;28;20110;-91
2022/07/24 10:12:29;;;;;;;3.63;2.00;;;30.60;83.80;;;;;;4993764;28;20049;-91
2022/07/24 10:15:01;;;;;;;3.20;1.83;;;30.80;84.20;;;;;;4997830;28;20031;-91
2022/07/24 10:17:42;;;;;;;3.45;1.80;;;30.90;83.20;;;;;;4973159;28;20383;-92
2022/07/24 10:20:38;;;;;;;3.13;1.52;;;31.00;83.10;;;;;;4975235;28;20026;-90
2022/07/24 10:23:24;;;;;;;3.85;1.98;;;30.90;82.80;;;;;;4972681;28;20046;-91
2022/07/24 10:25:56;;;;;;;6.55;2.08;;;31.20;81.80;;;;;;4985948;28;20027;-90
2022/07/24 10:29:11;;;;;;;;;;;;;;;;;;;;;
2022/07/24 12:07:48;;;;;;;3.28;1.92;;;33.20;73.70;;;;;;4987249;28;20049;-91
2022/07/24 12:10:36;;;;;;;3.78;2.00;;;33.50;73.10;;;;;;4984031;28;20022;-91
2022/07/24 12:13:19;;;;;;;3.63;1.85;;;34.10;71.50;;;;;;4986292;28;20034;-92
2022/07/24 12:15:51;;;;;;;4.85;1.90;;;34.80;71.60;;;;;;4998813;28;20039;-92
2022/07/24 12:18:17;;;;;;;4.03;2.05;;;35.10;69.90;;;;;;4954384;28;20069;-92
2022/07/24 12:20:53;;;;;;;3.65;1.60;;;35.30;69.00;;;;;;4978786;28;20031;-92
2022/07/24 12:23:25;;;;;;;3.75;1.75;;;35.80;68.70;;;;;;4985259;28;20037;-92
2022/07/24 12:25:54;;;;;;;3.03;1.70;;;35.90;66.80;;;;;;4982191;28;20272;-92
2022/07/24 12:28:30;;;;;;;3.15;2.05;;;34.80;68.00;;;;;;4980131;28;20023;-93
2022/07/24 12:30:59;;;;;;;3.10;1.67;;;34.40;69.10;;;;;;4981298;28;20487;-94
2022/07/24 12:33:30;;;;;;;3.00;1.80;;;33.70;68.70;;;;;;4997881;28;20038;-93
2022/07/24 12:36:40;;;;;;;3.40;1.70;;;33.10;68.70;;;;;;4995407;28;20034;-92
2022/07/24 12:39:14;;;;;;;3.65;1.85;;;33.00;71.10;;;;;;4993967;28;20404;-92
2022/07/24 12:42:00;;;;;;;;;;;33.80;70.00;;;;;;4977252;28;20082;-93
2022/07/24 12:45:00;;;;;;;3.30;1.80;;;34.20;67.60;;;;;;4980079;28;19925;-92
2022/07/24 12:47:57;;;;;;;2.92;1.75;;;34.90;66.70;;;;;;4970761;28;20026;-92
2022/07/24 12:51:10;;;;;;;3.53;1.80;;;34.60;65.70;;;;;;4984992;28;20037;-94
2022/07/24 12:56:53;;;;;;;3.53;1.92;;;35.30;65.80;;;;;;4981386;28;20348;-93
2022/07/24 12:59:25;;;;;;;3.10;1.80;;;35.70;65.20;;;;;;4985774;28;20514;-93
2022/07/24 13:01:54;;;;;;;5.03;2.35;;;36.00;64.40;;;;;;4982468;28;20034;-92
2022/07/24 13:04:25;;;;;;;2.97;1.77;;;36.30;64.00;;;;;;4992141;28;20023;-94
2022/07/24 13:06:53;;;;;;;2.83;1.65;;;36.40;64.40;;;;;;4982162;28;20023;-93
2022/07/24 13:09:34;;;;;;;4.47;1.90;;;35.90;62.90;;;;;;4997367;28;20029;-93
2022/07/24 13:12:00;;;;;;;3.65;1.90;;;35.80;62.80;;;;;;4967959;28;20038;-93
2022/07/24 13:14:35;;;;;;;3.28;1.88;;;35.70;62.70;;;;;;4992045;28;20047;-93
2022/07/24 13:17:08;;;;;;;3.35;1.85;;;36.10;63.90;;;;;;4997362;28;20080;-92
2022/07/24 13:19:37;;;;;;;3.38;1.80;;;36.30;63.10;;;;;;4987300;28;20118;-93
2022/07/24 13:26:06;;;;;;;3.20;1.85;;;36.80;61.30;;;;;;4996395;28;20036;-93
2022/07/24 13:32:44;;;;;;;2.65;1.65;;;37.60;60.00;;;;;;4997593;28;20557;-92
2022/07/24 13:38:49;;;;;;;4.03;1.70;;;37.10;58.90;;;;;;4997339;28;20058;-92
2022/07/24 13:41:47;;;;;;;2.70;1.50;;;36.80;59.20;;;;;;4983690;28;20031;-93
2022/07/24 13:47:42;;;;;;;2.28;1.40;;;36.30;58.80;;;;;;4998443;28;20106;-93
2022/07/24 13:50:14;;;;;;;2.97;1.52;;;36.90;58.50;;;;;;4983217;28;20041;-94
2022/07/24 13:52:41;;;;;;;2.13;1.40;;;37.10;58.50;;;;;;4981174;28;20033;-91
2022/07/24 13:55:07;;;;;;;2.85;1.58;;;37.20;57.60;;;;;;4966525;28;20045;-92
2022/07/24 13:57:56;;;;;;;2.97;1.60;;;37.20;56.90;;;;;;4987708;28;20019;-93
2022/07/24 14:00:23;;;;;;;3.50;1.75;;;36.60;56.90;;;;;;4993236;28;20033;-92
2022/07/24 14:02:49;;;;;;;2.60;1.70;;;36.60;57.80;;;;;;4989454;28;20475;-92
2022/07/24 14:05:18;;;;;;;3.83;1.70;;;36.40;57.00;;;;;;4989056;28;20040;-92
2022/07/24 14:07:44;;;;;;;4.40;1.67;;;36.90;57.00;;;;;;4980652;28;20101;-92
2022/07/24 14:10:10;;;;;;;2.85;1.52;;;37.20;57.10;;;;;;4972991;28;20492;-91
2022/07/24 14:12:39;;;;;;;2.67;1.48;;;37.20;56.30;;;;;;4986300;28;20031;-91
2022/07/24 14:15:18;;;;;;;;;;;;;;;;;;;;;
2022/07/24 14:17:49;;;;;;;4.25;1.77;;;37.50;57.40;;;;;;4981074;28;20263;-92
2022/07/24 14:20:20;;;;;;;3.10;1.55;;;37.60;56.90;;;;;;4983089;28;20027;-93
2022/07/24 14:22:49;;;;;;;2.75;1.70;;;37.70;58.00;;;;;;4987999;28;20487;-92
2022/07/24 14:25:22;;;;;;;2.60;1.58;;;38.00;58.00;;;;;;4975600;28;20035;-93
2022/07/24 14:27:53;;;;;;;2.97;1.70;;;38.00;56.40;;;;;;4990427;28;20029;-90
2022/07/24 14:30:29;;;;;;;2.80;1.90;;;37.20;55.80;;;;;;4976006;28;20026;-91
2022/07/24 14:33:00;;;;;;;3.15;1.73;;;37.30;56.10;;;;;;4978207;28;20476;-91
2022/07/24 14:35:27;;;;;;;3.42;2.00;;;37.20;57.10;;;;;;4990905;28;20018;-90
2022/07/24 14:37:55;;;;;;;4.05;2.10;;;37.20;56.30;;;;;;4996596;28;20117;-90
2022/07/24 14:40:21;;;;;;;4.07;1.70;;;37.60;56.90;;;;;;4992954;28;20102;-92
2022/07/24 14:42:55;;;;;;;3.15;1.80;;;37.80;56.50;;;;;;4982543;28;20051;-90
2022/07/24 14:45:22;;;;;;;2.90;1.80;;;38.00;55.90;;;;;;4984646;28;20057;-92
2022/07/24 14:47:51;;;;;;;3.85;1.50;;;37.90;56.00;;;;;;4972205;28;20706;-91
2022/07/24 14:50:30;;;;;;;3.85;1.88;;;37.80;56.00;;;;;;4990079;28;20027;-90
2022/07/24 14:52:59;;;;;;;2.97;1.40;;;37.90;55.60;;;;;;4977176;28;20038;-92
2022/07/24 14:55:25;;;;;;;2.88;1.50;;;37.90;56.30;;;;;;4991355;28;20121;-91
2022/07/24 14:57:51;;;;;;;3.20;2.00;;;38.20;56.90;;;;;;4982035;28;20030;-89
2022/07/24 15:00:26;;;;;;;3.60;1.75;;;38.30;55.00;;;;;;4978132;28;20519;-90
2022/07/24 15:02:54;;;;;;;3.08;1.80;;;38.20;54.90;;;;;;4985730;28;20036;-91
2022/07/24 15:05:20;;;;;;;3.10;1.60;;;38.00;55.10;;;;;;4992368;28;20026;-91
2022/07/24 15:07:48;;;;;;;4.47;1.77;;;38.20;55.60;;;;;;5037205;23;20062;-91
2022/07/24 15:10:24;;;;;;;3.03;1.75;;;38.20;55.40;;;;;;5009983;28;20182;-91
2022/07/24 15:12:50;;;;;;;3.10;1.65;;;38.50;55.40;;;;;;5014168;28;20025;-89
2022/07/24 15:15:20;;;;;;;3.30;1.83;;;37.90;55.00;;;;;;5013322;28;20030;-91
2022/07/24 15:17:55;;;;;;;3.97;1.77;;;37.90;55.70;;;;;;4987549;28;20039;-90
2022/07/24 15:20:25;;;;;;;3.58;1.70;;;37.90;55.60;;;;;;5012075;28;20019;-89
2022/07/24 15:22:54;;;;;;;3.15;2.00;;;37.50;54.30;;;;;;5010818;28;20075;-89
2022/07/24 15:25:23;;;;;;;5.43;1.77;;;37.80;55.00;;;;;;5009840;28;20023;-89
2022/07/24 15:28:23;;;;;;;3.03;1.50;;;37.40;54.80;;;;;;5015164;28;20010;-89
2022/07/24 15:30:50;;;;;;;;;;;37.70;55.00;;;;;;5009489;28;20030;-90
2022/07/24 15:33:20;;;;;;;2.67;1.70;;;37.80;55.80;;;;;;5012519;28;20016;-89
2022/07/24 15:35:46;;;;;;;;;;;37.80;54.50;;;;;;5005559;28;20015;-88
2022/07/24 15:38:23;;;;;;;;;;;;;;;;;;;;;
2022/07/24 15:41:15;;;;;;;4.13;1.90;;;37.50;55.40;;;;;;5003165;28;20095;-92
2022/07/24 15:46:39;;;;;;;3.25;1.80;;;37.50;55.00;;;;;;5007394;28;20443;-90
2022/07/24 15:49:20;;;;;;;3.70;1.80;;;37.20;54.70;;;;;;5011617;28;20033;-90
2022/07/24 15:52:12;;;;;;;3.08;1.95;;;37.10;54.80;;;;;;5006920;28;20027;-92
2022/07/24 15:54:43;;;;;;;3.30;1.60;;;36.90;55.70;;;;;;4998986;28;20031;-90